Time;durP1;ratioP1;P1;durP2;ratioP2;P2;SDS_P1;SDS_P2;PMS_P1;PMS_P2;Temp;Humidity;BMP_temperature;BMP_pressure;BME280_temperature;BME280_humidity;BME280_pressure;Samples;Min_cycle;Max_cycle;Signal;HPM_P1;HPM_P2
2022/05/23 00:02:19;;;;;;;1.63;1.08;;;;;;;;;;5035261;28;20045;-80
2022/05/23 00:04:46;;;;;;;1.65;1.10;;;13.70;99.90;;;;;;5050607;28;20041;-80
2022/05/23 00:07:22;;;;;;;1.60;1.00;;;13.70;99.90;;;;;;5051493;28;20040;-80
2022/05/23 00:09:51;;;;;;;1.52;0.98;;;13.60;99.90;;;;;;5051495;28;20044;-80
2022/05/23 00:12:18;;;;;;;4.53;1.40;;;13.60;99.90;;;;;;5019117;28;20500;-80
2022/05/23 00:14:43;;;;;;;3.45;1.25;;;13.60;99.90;;;;;;5051708;28;20438;-80
2022/05/23 00:17:11;;;;;;;1.35;0.98;;;13.60;99.90;;;;;;5034894;28;20129;-80
2022/05/23 00:19:37;;;;;;;4.50;1.00;;;13.60;99.90;;;;;;5051719;28;20507;-80
2022/05/23 00:22:03;;;;;;;1.45;0.88;;;13.60;99.90;;;;;;5036143;28;20060;-80
2022/05/23 00:24:29;;;;;;;2.42;1.08;;;13.60;99.90;;;;;;5015136;28;20038;-80
2022/05/23 00:26:55;;;;;;;2.45;1.00;;;13.50;99.90;;;;;;4998925;28;20405;-80
2022/05/23 00:29:21;;;;;;;2.75;0.88;;;13.50;99.90;;;;;;4998785;28;20052;-80
2022/05/23 00:37:18;;;;;;;1.65;0.90;;;13.50;99.90;;;;;;5031482;28;20565;-80
2022/05/23 00:39:43;;;;;;;1.30;0.98;;;13.40;99.90;;;;;;4998565;28;20077;-80
2022/05/23 00:44:57;;;;;;;1.52;0.90;;;13.30;99.90;;;;;;5031224;28;20154;-80
2022/05/23 00:47:26;;;;;;;2.63;1.15;;;13.30;99.90;;;;;;4998558;28;20513;-80
2022/05/23 00:49:52;;;;;;;1.25;0.80;;;13.40;99.90;;;;;;5014772;28;20043;-80
2022/05/23 00:52:37;;;;;;;3.28;1.13;;;13.20;99.90;;;;;;5014777;28;20124;-80
2022/05/23 00:55:10;;;;;;;1.90;1.00;;;13.20;99.90;;;;;;5031076;28;20567;-80
2022/05/23 00:57:41;;;;;;;1.52;1.00;;;13.10;99.90;;;;;;5014689;28;20508;-80
2022/05/23 01:00:09;;;;;;;2.67;1.23;;;13.10;99.90;;;;;;5031116;28;20053;-80
2022/05/23 01:02:36;;;;;;;1.20;0.95;;;13.10;99.90;;;;;;5031151;28;20053;-80
2022/05/23 01:05:08;;;;;;;1.50;1.08;;;13.00;99.90;;;;;;4982341;28;20153;-80
2022/05/23 01:07:34;;;;;;;2.75;1.30;;;13.00;99.90;;;;;;5014900;28;20400;-80
2022/05/23 01:10:00;;;;;;;1.73;1.10;;;12.90;99.90;;;;;;5014910;28;20507;-80
2022/05/23 01:12:27;;;;;;;1.30;0.93;;;12.80;99.90;;;;;;5014604;28;20037;-80
2022/05/23 01:14:57;;;;;;;2.55;1.30;;;12.90;99.90;;;;;;5014496;28;20109;-80
2022/05/23 01:17:24;;;;;;;1.85;1.20;;;12.70;99.90;;;;;;5017487;28;20042;-80
2022/05/23 01:19:50;;;;;;;1.10;1.00;;;12.80;99.90;;;;;;5034453;28;20037;-79
2022/05/23 01:22:21;;;;;;;3.22;1.17;;;12.70;99.90;;;;;;5034219;28;20064;-80
2022/05/23 01:25:04;;;;;;;1.25;0.85;;;12.80;99.90;;;;;;5034430;28;20041;-79
2022/05/23 01:27:31;;;;;;;1.92;1.30;;;12.70;99.90;;;;;;5017853;28;20038;-79
2022/05/23 01:29:57;;;;;;;1.63;1.13;;;13.00;99.90;;;;;;5034434;28;20046;-80
2022/05/23 01:32:23;;;;;;;1.77;1.17;;;12.70;99.90;;;;;;5034287;28;20408;-79
2022/05/23 01:34:49;;;;;;;0.77;0.77;;;12.60;99.90;;;;;;5017713;28;20043;-80
2022/05/23 01:37:15;;;;;;;1.30;1.10;;;12.60;99.90;;;;;;5034079;28;20080;-80
2022/05/23 01:39:40;;;;;;;4.55;1.10;;;12.60;99.90;;;;;;5034372;28;20077;-80
2022/05/23 01:42:06;;;;;;;2.58;1.55;;;12.50;99.90;;;;;;5017621;28;20033;-79
2022/05/23 01:44:33;;;;;;;5.25;1.05;;;12.60;99.90;;;;;;5001322;28;20041;-80
2022/05/23 01:46:59;;;;;;;1.52;1.20;;;12.80;99.90;;;;;;5001374;28;20044;-80
2022/05/23 01:49:25;;;;;;;1.60;1.13;;;12.50;99.90;;;;;;5017493;28;20033;-79
2022/05/23 01:51:50;;;;;;;1.48;1.27;;;12.40;99.90;;;;;;5033913;28;20124;-79
2022/05/23 01:54:16;;;;;;;2.47;1.33;;;12.50;99.90;;;;;;5033832;28;20120;-79
2022/05/23 01:56:42;;;;;;;2.95;1.70;;;12.50;99.90;;;;;;4984812;28;20045;-79
2022/05/23 02:01:51;;;;;;;2.22;1.33;;;12.50;99.90;;;;;;5006142;28;20128;-80
2022/05/23 02:04:17;;;;;;;2.85;1.33;;;12.70;99.90;;;;;;4984559;28;20076;-80
2022/05/23 02:06:43;;;;;;;2.55;1.50;;;12.50;99.90;;;;;;5017168;28;20501;-80
2022/05/23 02:09:08;;;;;;;1.98;1.50;;;13.00;99.90;;;;;;5017117;28;20485;-80
2022/05/23 02:11:34;;;;;;;1.95;1.50;;;12.60;99.90;;;;;;5017062;28;20459;-80
2022/05/23 02:14:00;;;;;;;3.20;1.55;;;13.00;99.90;;;;;;5017000;28;20042;-79
2022/05/23 02:16:27;;;;;;;1.25;1.15;;;13.10;99.90;;;;;;5033315;28;20048;-80
2022/05/23 02:18:53;;;;;;;1.90;1.40;;;12.50;99.90;;;;;;5001112;28;20612;-79
2022/05/23 02:21:18;;;;;;;2.40;1.70;;;12.40;99.90;;;;;;5038752;28;20136;-80
2022/05/23 02:23:44;;;;;;;4.43;2.28;;;13.00;99.90;;;;;;5016824;28;20044;-79
2022/05/23 02:26:10;;;;;;;3.10;1.40;;;12.80;99.90;;;;;;5016814;28;20045;-79
2022/05/23 02:28:36;;;;;;;1.83;1.42;;;12.50;99.90;;;;;;5032483;28;20496;-79
2022/05/23 02:31:01;;;;;;;2.22;1.60;;;12.60;99.90;;;;;;5000651;28;20041;-78
2022/05/23 02:33:27;;;;;;;4.00;1.73;;;12.60;99.90;;;;;;5033147;28;20045;-79
2022/05/23 02:35:53;;;;;;;1.60;1.15;;;12.80;99.90;;;;;;5033002;28;20045;-79
2022/05/23 02:38:19;;;;;;;2.53;1.60;;;12.70;99.90;;;;;;5032979;28;20496;-79
2022/05/23 02:40:44;;;;;;;1.38;1.17;;;12.70;99.90;;;;;;5016471;28;20073;-79
2022/05/23 02:43:10;;;;;;;2.67;0.90;;;12.60;99.90;;;;;;5016731;28;20492;-79
2022/05/23 02:45:41;;;;;;;2.05;1.20;;;12.80;99.90;;;;;;5033143;28;20052;-80
2022/05/23 02:48:07;;;;;;;;;;;12.70;99.90;;;;;;5000987;28;20038;-79
2022/05/23 02:50:33;;;;;;;2.90;1.98;;;12.40;99.90;;;;;;5016286;28;19963;-80
2022/05/23 02:52:59;;;;;;;2.00;1.55;;;13.30;99.90;;;;;;5000024;28;20041;-79
2022/05/23 02:55:24;;;;;;;2.88;1.58;;;12.70;99.90;;;;;;5032680;28;20042;-80
2022/05/23 02:57:50;;;;;;;4.43;1.67;;;12.50;99.90;;;;;;5016462;28;20068;-79
2022/05/23 03:00:16;;;;;;;3.42;1.77;;;12.60;99.90;;;;;;5016270;28;20037;-79
2022/05/23 03:05:27;;;;;;;2.13;1.40;;;12.60;99.90;;;;;;5018912;28;20081;-79
2022/05/23 03:07:52;;;;;;;2.10;1.55;;;13.40;99.90;;;;;;5032439;28;20077;-79
2022/05/23 03:10:18;;;;;;;2.28;1.67;;;12.60;99.90;;;;;;5015996;28;20408;-79
2022/05/23 03:12:45;;;;;;;2.88;1.70;;;12.70;99.90;;;;;;5015906;28;20421;-79
2022/05/23 03:15:12;;;;;;;1.35;1.23;;;12.70;99.90;;;;;;5032170;28;20115;-79
2022/05/23 03:17:38;;;;;;;2.75;1.70;;;12.70;99.90;;;;;;5015966;28;20090;-79
2022/05/23 03:20:05;;;;;;;2.20;1.35;;;12.60;99.90;;;;;;5032272;28;20084;-79
2022/05/23 03:27:59;;;;;;;2.15;1.38;;;12.70;99.90;;;;;;5032349;28;20075;-79
2022/05/23 03:30:27;;;;;;;2.28;1.80;;;12.80;99.90;;;;;;4999391;28;20052;-79
2022/05/23 03:32:53;;;;;;;4.60;1.40;;;12.70;99.90;;;;;;5015856;28;20104;-79
2022/05/23 03:35:18;;;;;;;2.20;1.35;;;12.70;99.90;;;;;;4999029;28;20045;-79
2022/05/23 03:37:44;;;;;;;2.22;1.73;;;12.70;99.90;;;;;;5032019;28;20052;-79
2022/05/23 03:40:11;;;;;;;6.93;1.63;;;12.70;99.90;;;;;;4998997;28;20046;-79
2022/05/23 03:42:36;;;;;;;2.50;1.85;;;12.80;99.90;;;;;;5015858;28;20037;-79
2022/05/23 03:45:03;;;;;;;5.97;1.90;;;12.70;99.90;;;;;;5015327;28;20048;-79
2022/05/23 03:47:28;;;;;;;2.78;1.60;;;12.70;99.90;;;;;;5031870;28;20064;-79
2022/05/23 03:49:54;;;;;;;2.83;1.88;;;13.00;99.90;;;;;;5015383;28;20041;-79
2022/05/23 03:52:20;;;;;;;1.63;1.45;;;13.00;99.90;;;;;;5031718;28;20052;-79
2022/05/23 03:54:46;;;;;;;2.63;1.90;;;13.00;99.90;;;;;;5015317;28;20081;-79
2022/05/23 03:57:12;;;;;;;3.53;1.70;;;13.10;99.90;;;;;;5015179;28;20030;-79
2022/05/23 03:59:38;;;;;;;3.65;2.03;;;12.80;99.90;;;;;;5031954;28;20104;-79
2022/05/23 04:02:04;;;;;;;2.78;1.75;;;12.70;99.90;;;;;;5031687;28;20044;-79
2022/05/23 04:04:31;;;;;;;1.92;1.77;;;12.80;99.90;;;;;;4998993;28;20083;-79
2022/05/23 04:07:01;;;;;;;2.90;1.85;;;12.70;99.90;;;;;;5031643;28;20136;-79
2022/05/23 04:09:28;;;;;;;2.80;2.03;;;12.80;99.90;;;;;;5031594;28;20124;-79
2022/05/23 04:11:55;;;;;;;2.85;1.77;;;12.60;99.90;;;;;;5031618;28;20470;-79
2022/05/23 04:14:21;;;;;;;2.58;1.75;;;13.40;99.90;;;;;;4998873;28;20225;-79
2022/05/23 04:16:48;;;;;;;3.30;1.85;;;12.80;99.90;;;;;;5031473;28;20049;-79
2022/05/23 04:19:14;;;;;;;2.38;1.70;;;12.90;99.90;;;;;;5031538;28;20048;-79
2022/05/23 04:21:41;;;;;;;2.28;2.00;;;12.70;99.90;;;;;;5023359;28;20062;-79
2022/05/23 04:24:08;;;;;;;5.32;1.85;;;13.70;99.90;;;;;;5048334;28;20045;-79
2022/05/23 04:26:34;;;;;;;2.55;1.67;;;12.80;99.90;;;;;;5031497;28;20048;-79
2022/05/23 04:28:59;;;;;;;5.00;1.85;;;13.10;99.90;;;;;;5031710;28;20599;-79
2022/05/23 04:31:25;;;;;;;2.42;1.77;;;12.80;99.90;;;;;;5015234;28;20079;-79
2022/05/23 04:36:35;;;;;;;2.85;1.95;;;13.20;99.90;;;;;;5031244;28;20077;-79
2022/05/23 04:39:01;;;;;;;3.90;1.70;;;12.90;99.90;;;;;;5031315;28;20041;-79
2022/05/23 04:41:26;;;;;;;4.55;2.13;;;13.00;99.90;;;;;;5014865;28;20095;-79
2022/05/23 04:43:52;;;;;;;2.17;1.80;;;13.00;99.90;;;;;;4982414;28;20044;-79
2022/05/23 04:46:18;;;;;;;6.07;2.15;;;12.80;99.90;;;;;;4998497;28;20049;-79
2022/05/23 04:51:28;;;;;;;3.50;2.17;;;12.90;99.90;;;;;;5033254;28;20556;-79
2022/05/23 04:53:53;;;;;;;2.35;1.92;;;13.00;99.90;;;;;;5035209;28;20080;-79
2022/05/23 04:56:20;;;;;;;4.95;1.90;;;13.00;99.90;;;;;;5018377;28;20038;-79
2022/05/23 04:58:46;;;;;;;1.98;1.80;;;12.90;99.90;;;;;;5018421;28;20087;-79
2022/05/23 05:01:12;;;;;;;2.72;1.95;;;13.10;99.90;;;;;;5018318;28;20045;-79
2022/05/23 05:03:38;;;;;;;2.33;1.88;;;13.10;99.90;;;;;;5035051;28;20041;-79
2022/05/23 05:06:04;;;;;;;5.78;2.00;;;13.30;99.90;;;;;;5034773;28;20072;-79
2022/05/23 05:08:30;;;;;;;3.08;2.10;;;13.40;99.90;;;;;;5018262;28;20135;-79
2022/05/23 05:10:57;;;;;;;2.03;1.80;;;13.60;99.90;;;;;;5018526;28;20041;-79
2022/05/23 05:13:24;;;;;;;3.15;1.98;;;13.70;99.90;;;;;;5018374;28;20132;-79
2022/05/23 05:15:50;;;;;;;3.42;2.10;;;13.60;99.90;;;;;;5018065;28;20054;-80
2022/05/23 05:18:16;;;;;;;3.15;2.20;;;13.80;99.90;;;;;;4985607;28;20041;-79
2022/05/23 05:20:41;;;;;;;3.15;2.20;;;13.80;99.90;;;;;;5021450;28;20041;-80
2022/05/23 05:23:07;;;;;;;3.08;2.08;;;13.80;99.90;;;;;;5057922;28;20048;-80
2022/05/23 05:25:33;;;;;;;2.80;2.03;;;13.80;99.90;;;;;;5041031;28;20048;-80
2022/05/23 05:27:59;;;;;;;3.10;2.17;;;13.90;99.90;;;;;;5057958;28;20118;-79
2022/05/23 05:30:25;;;;;;;2.80;1.98;;;13.90;99.90;;;;;;5058447;28;20044;-78
2022/05/23 05:32:54;;;;;;;5.20;2.28;;;14.00;99.90;;;;;;5042244;28;20070;-78
2022/05/23 05:35:36;;;;;;;3.03;2.20;;;14.10;99.90;;;;;;5058096;28;20044;-79
2022/05/23 05:38:10;;;;;;;3.10;1.92;;;14.30;99.90;;;;;;5058770;28;20103;-78
2022/05/23 05:40:36;;;;;;;2.63;2.13;;;14.40;99.90;;;;;;5075141;28;20115;-78
2022/05/23 05:43:14;;;;;;;3.10;1.98;;;14.50;99.90;;;;;;5057902;28;20127;-78
2022/05/23 05:45:48;;;;;;;3.08;2.10;;;14.70;99.90;;;;;;5057407;28;20127;-78
2022/05/23 05:48:14;;;;;;;3.13;1.88;;;14.80;99.90;;;;;;5057156;28;20040;-77
2022/05/23 05:50:42;;;;;;;3.65;2.63;;;14.80;99.90;;;;;;5057470;28;20070;-75
2022/05/23 05:53:14;;;;;;;3.58;2.50;;;14.80;99.90;;;;;;5057027;28;20036;-75
2022/05/23 05:55:42;;;;;;;2.97;2.20;;;14.80;99.90;;;;;;5057193;28;20044;-76
2022/05/23 05:58:08;;;;;;;3.63;2.13;;;14.80;99.90;;;;;;5057030;28;20244;-74
2022/05/23 06:00:34;;;;;;;3.85;2.42;;;14.70;99.90;;;;;;5057282;28;20036;-75
2022/05/23 06:03:00;;;;;;;2.83;2.28;;;14.60;99.90;;;;;;5056804;28;20037;-75
2022/05/23 06:05:26;;;;;;;3.50;2.17;;;14.60;99.90;;;;;;5056865;28;20412;-75
2022/05/23 06:13:20;;;;;;;5.95;1.92;;;14.80;99.90;;;;;;5061036;28;20071;-77
2022/05/23 06:15:46;;;;;;;3.50;2.13;;;15.00;99.90;;;;;;5057114;28;20496;-83
2022/05/23 06:18:12;;;;;;;4.28;2.00;;;15.20;99.90;;;;;;5056816;28;20032;-82
2022/05/23 06:20:38;;;;;;;3.65;1.98;;;15.40;99.90;;;;;;5056646;28;20037;-79
2022/05/23 06:23:05;;;;;;;4.00;2.35;;;15.60;99.90;;;;;;5073249;28;20040;-79
2022/05/23 06:25:32;;;;;;;2.90;2.05;;;;;;;;;;5056662;28;20050;-79
2022/05/23 06:27:58;;;;;;;2.58;1.83;;;15.80;99.90;;;;;;5058433;28;20051;-80
2022/05/23 06:30:24;;;;;;;3.03;2.20;;;16.00;99.90;;;;;;5056334;28;20047;-80
2022/05/23 06:32:54;;;;;;;5.25;2.58;;;16.10;99.90;;;;;;5040063;28;20040;-80
2022/05/23 06:35:21;;;;;;;4.60;2.30;;;16.10;99.90;;;;;;5056133;28;20036;-81
2022/05/23 06:37:47;;;;;;;2.75;2.03;;;16.20;99.90;;;;;;5056263;28;20119;-81
2022/05/23 06:40:14;;;;;;;2.67;2.10;;;16.20;99.90;;;;;;5056478;28;20076;-81
2022/05/23 06:42:40;;;;;;;4.13;2.00;;;16.30;99.90;;;;;;5056089;28;20040;-80
2022/05/23 06:45:07;;;;;;;2.70;1.85;;;16.30;99.90;;;;;;5072743;28;20040;-80
2022/05/23 06:47:33;;;;;;;3.05;2.28;;;16.40;99.90;;;;;;5056092;28;20043;-79
2022/05/23 06:49:59;;;;;;;7.50;2.53;;;16.50;99.90;;;;;;5056026;28;20041;-80
2022/05/23 06:52:25;;;;;;;4.57;2.47;;;16.60;99.90;;;;;;5056349;28;20067;-79
2022/05/23 06:54:51;;;;;;;3.15;2.33;;;16.70;99.90;;;;;;5072613;28;20075;-79
2022/05/23 06:57:17;;;;;;;4.07;2.58;;;16.80;99.90;;;;;;5072468;28;20071;-80
2022/05/23 06:59:43;;;;;;;2.88;1.92;;;16.90;99.90;;;;;;5056160;28;20131;-80
2022/05/23 07:02:09;;;;;;;3.42;2.10;;;17.10;99.90;;;;;;5055774;28;20162;-80
2022/05/23 07:13:00;;;;;;;5.22;2.45;;;17.30;99.90;;;;;;5055498;28;20049;-79
2022/05/23 07:15:27;;;;;;;2.67;1.80;;;17.40;99.90;;;;;;5055200;28;20041;-81
2022/05/23 07:17:53;;;;;;;5.05;3.00;;;17.50;99.90;;;;;;5055529;28;20045;-81
2022/05/23 07:20:19;;;;;;;4.07;2.35;;;17.60;99.90;;;;;;5055423;28;20036;-80
2022/05/23 07:22:45;;;;;;;6.35;2.33;;;17.70;99.90;;;;;;5033342;28;20103;-80
2022/05/23 07:25:10;;;;;;;3.88;2.10;;;18.00;99.90;;;;;;5015711;28;20046;-80
2022/05/23 07:27:36;;;;;;;4.43;2.78;;;18.20;99.90;;;;;;5032167;28;20044;-80
2022/05/23 07:30:03;;;;;;;7.85;2.63;;;18.50;99.90;;;;;;5032136;28;20072;-80
2022/05/23 07:32:29;;;;;;;2.85;2.15;;;18.50;99.90;;;;;;5015598;28;20099;-80
2022/05/23 07:34:55;;;;;;;5.82;2.47;;;18.70;99.90;;;;;;5032163;28;20378;-80
2022/05/23 07:37:21;;;;;;;3.83;1.92;;;18.70;99.90;;;;;;5031962;28;20045;-80
2022/05/23 07:39:47;;;;;;;2.75;2.13;;;18.90;99.90;;;;;;4999181;28;20037;-80
2022/05/23 07:42:13;;;;;;;3.05;2.17;;;18.90;99.90;;;;;;5015557;28;20405;-80
2022/05/23 07:44:39;;;;;;;2.33;1.85;;;18.80;99.90;;;;;;4999318;28;20037;-80
2022/05/23 07:47:06;;;;;;;3.00;2.20;;;18.90;99.90;;;;;;4999365;28;20041;-80
2022/05/23 07:49:34;;;;;;;4.43;2.15;;;18.10;99.90;;;;;;4983436;28;20095;-81
2022/05/23 07:52:01;;;;;;;4.85;2.30;;;19.00;99.90;;;;;;5015333;28;20128;-81
2022/05/23 08:02:39;;;;;;;6.57;2.25;;;19.60;99.90;;;;;;5031622;28;20038;-80
2022/05/23 08:05:07;;;;;;;2.38;1.75;;;19.70;99.90;;;;;;5031625;28;20037;-80
2022/05/23 08:07:33;;;;;;;6.00;2.65;;;19.80;99.90;;;;;;4999301;28;20116;-81
2022/05/23 08:10:00;;;;;;;6.50;2.25;;;19.90;99.90;;;;;;5015180;28;20069;-81
2022/05/23 08:12:29;;;;;;;3.85;2.08;;;19.90;99.90;;;;;;5031523;28;20040;-81
2022/05/23 08:14:56;;;;;;;2.60;2.00;;;20.20;99.90;;;;;;5031519;28;20041;-81
2022/05/23 08:17:22;;;;;;;3.63;2.13;;;20.40;99.90;;;;;;5015292;28;20048;-80
2022/05/23 08:19:49;;;;;;;3.17;2.25;;;20.50;99.90;;;;;;5031805;28;20068;-81
2022/05/23 08:22:15;;;;;;;3.28;2.30;;;20.60;99.90;;;;;;5042660;28;20085;-80
2022/05/23 08:24:41;;;;;;;2.88;1.98;;;20.70;99.90;;;;;;5031468;28;20049;-80
2022/05/23 08:27:07;;;;;;;5.38;2.03;;;20.80;99.90;;;;;;5018169;28;20444;-80
2022/05/23 08:29:35;;;;;;;3.67;2.17;;;20.90;99.90;;;;;;5002924;28;20037;-80
2022/05/23 08:32:03;;;;;;;4.07;2.08;;;21.10;99.90;;;;;;5035462;28;20041;-80
2022/05/23 08:34:29;;;;;;;4.68;2.00;;;21.20;99.90;;;;;;5035753;28;20057;-79
2022/05/23 08:36:55;;;;;;;3.58;2.15;;;21.30;99.90;;;;;;5018749;28;20045;-80
2022/05/23 08:39:20;;;;;;;4.50;2.40;;;21.40;99.90;;;;;;5002449;28;20094;-81
2022/05/23 08:41:50;;;;;;;3.85;2.30;;;21.40;99.90;;;;;;5018854;28;20478;-80
2022/05/23 08:44:53;;;;;;;7.50;1.90;;;21.40;99.90;;;;;;5035529;28;20615;-80
2022/05/23 08:47:32;;;;;;;4.18;2.38;;;21.30;99.90;;;;;;5018924;28;20063;-80
2022/05/23 08:50:15;;;;;;;6.22;1.80;;;21.20;99.90;;;;;;5035105;28;20120;-80
2022/05/23 08:52:58;;;;;;;4.05;2.00;;;21.30;99.90;;;;;;5035013;28;20046;-80
2022/05/23 08:55:40;;;;;;;3.95;1.92;;;21.40;99.90;;;;;;5034863;28;20046;-80
2022/05/23 08:58:14;;;;;;;4.88;2.00;;;21.50;99.90;;;;;;5018491;28;20034;-80
2022/05/23 09:00:46;;;;;;;6.30;2.20;;;21.60;99.90;;;;;;5035106;28;20049;-80
2022/05/23 09:03:18;;;;;;;3.67;2.17;;;21.70;99.90;;;;;;5018332;28;20077;-80
2022/05/23 09:05:51;;;;;;;2.63;1.70;;;21.70;99.90;;;;;;5034788;28;20091;-80
2022/05/23 09:08:21;;;;;;;3.67;1.90;;;22.10;99.90;;;;;;5034976;28;20485;-80
2022/05/23 09:10:55;;;;;;;4.13;1.88;;;22.00;99.90;;;;;;5018238;28;20063;-80
2022/05/23 09:13:23;;;;;;;2.75;1.83;;;22.10;99.90;;;;;;5034615;28;20045;-79
2022/05/23 09:15:56;;;;;;;4.10;1.90;;;21.90;99.90;;;;;;5034527;28;20053;-80
2022/05/23 09:18:26;;;;;;;3.28;1.48;;;22.10;99.90;;;;;;5034766;28;20042;-80
2022/05/23 09:20:58;;;;;;;3.55;1.88;;;22.30;99.90;;;;;;5040585;28;20090;-79
2022/05/23 09:23:31;;;;;;;3.08;1.80;;;22.30;99.90;;;;;;5074282;28;20037;-81
2022/05/23 09:25:59;;;;;;;4.03;1.77;;;22.30;99.90;;;;;;5057971;28;20504;-82
2022/05/23 09:28:27;;;;;;;2.65;1.60;;;22.40;99.90;;;;;;5057637;28;20194;-80
2022/05/23 09:31:24;;;;;;;1.92;1.38;;;22.60;99.90;;;;;;5074600;28;20049;-80
2022/05/23 09:33:54;;;;;;;2.80;1.60;;;22.50;99.90;;;;;;5049732;28;20045;-80
2022/05/23 09:36:38;;;;;;;2.53;1.65;;;22.60;99.90;;;;;;5057027;28;20056;-80
2022/05/23 09:39:20;;;;;;;1.73;1.35;;;22.70;99.90;;;;;;5057618;28;20135;-81
2022/05/23 09:47:45;;;;;;;1.70;1.20;;;23.00;99.90;;;;;;5057227;28;20048;-80
2022/05/23 09:50:12;;;;;;;3.72;2.05;;;;;;;;;;5057447;28;20480;-79
2022/05/23 09:52:51;;;;;;;2.22;1.40;;;;;;;;;;5073837;28;20123;-80
2022/05/23 09:55:35;;;;;;;1.98;1.25;;;23.50;99.90;;;;;;5073927;28;20055;-79
2022/05/23 09:58:03;;;;;;;1.58;1.10;;;23.50;99.90;;;;;;5057155;28;20099;-80
2022/05/23 10:00:54;;;;;;;1.60;1.00;;;23.60;99.90;;;;;;5057038;28;20098;-80
2022/05/23 10:03:23;;;;;;;1.90;0.98;;;23.80;99.90;;;;;;5056940;28;20044;-79
2022/05/23 10:06:06;;;;;;;1.42;0.93;;;24.00;99.90;;;;;;5057436;28;20047;-80
2022/05/23 10:08:35;;;;;;;1.55;1.00;;;23.80;99.90;;;;;;5056753;28;20059;-80
2022/05/23 10:11:06;;;;;;;2.08;1.10;;;23.80;99.90;;;;;;5057040;28;20037;-80
2022/05/23 10:13:35;;;;;;;0.80;0.75;;;23.70;99.90;;;;;;5056958;28;20391;-80
2022/05/23 10:16:12;;;;;;;1.23;0.88;;;23.60;99.90;;;;;;5056667;28;20044;-80
2022/05/23 10:18:51;;;;;;;1.30;0.77;;;23.50;99.90;;;;;;5073426;28;20074;-80
2022/05/23 10:21:31;;;;;;;3.30;1.02;;;23.50;99.90;;;;;;5056654;28;20092;-80
2022/05/23 10:24:02;;;;;;;2.33;1.48;;;23.40;99.90;;;;;;5056516;28;20123;-80
2022/05/23 10:26:29;;;;;;;;;;;23.40;99.90;;;;;;5057287;28;20048;-80
2022/05/23 10:29:26;;;;;;;1.38;1.05;;;23.50;99.90;;;;;;5056688;28;19916;-79
2022/05/23 10:32:02;;;;;;;1.70;0.98;;;23.40;99.90;;;;;;5009837;28;20048;-80
2022/05/23 10:34:44;;;;;;;1.88;1.23;;;23.50;99.90;;;;;;5056435;28;20045;-80
2022/05/23 10:37:17;;;;;;;1.58;1.10;;;23.40;99.90;;;;;;5039638;28;20549;-79
2022/05/23 10:42:44;;;;;;;3.33;1.05;;;23.50;99.90;;;;;;5056275;28;20044;-79
2022/05/23 10:45:28;;;;;;;2.45;1.15;;;23.60;99.90;;;;;;5056136;28;20037;-79
2022/05/23 10:48:25;;;;;;;1.30;1.00;;;23.70;99.90;;;;;;5055741;28;20032;-80
2022/05/23 10:51:07;;;;;;;2.72;1.02;;;23.70;99.90;;;;;;5039474;28;20036;-79
2022/05/23 10:54:02;;;;;;;1.33;0.93;;;23.90;99.90;;;;;;5055977;28;20044;-80
2022/05/23 10:56:49;;;;;;;2.95;1.30;;;24.10;99.90;;;;;;5056007;28;20040;-79
2022/05/23 10:59:22;;;;;;;1.45;1.15;;;24.10;99.90;;;;;;5072445;28;20067;-79
2022/05/23 11:02:06;;;;;;;1.70;0.98;;;24.00;99.90;;;;;;5055789;28;20136;-79
2022/05/23 11:04:47;;;;;;;1.77;1.25;;;24.00;99.90;;;;;;5055809;28;20044;-80
2022/05/23 11:07:38;;;;;;;1.38;1.00;;;23.90;99.90;;;;;;5055978;28;20040;-80
2022/05/23 11:10:25;;;;;;;1.98;1.00;;;24.00;99.90;;;;;;5055986;28;20036;-79
2022/05/23 11:13:14;;;;;;;3.25;1.23;;;24.00;99.90;;;;;;5055786;28;20076;-80
2022/05/23 11:15:56;;;;;;;2.25;1.20;;;24.00;99.90;;;;;;5057455;28;20117;-81
2022/05/23 11:18:31;;;;;;;1.58;0.95;;;24.10;99.90;;;;;;5057690;28;20040;-80
2022/05/23 11:21:04;;;;;;;1.83;1.00;;;24.10;99.90;;;;;;5058390;28;20041;-80
2022/05/23 11:23:37;;;;;;;2.85;1.13;;;24.10;99.90;;;;;;5057674;28;20037;-80
2022/05/23 11:26:10;;;;;;;2.30;1.52;;;24.10;99.90;;;;;;5058019;28;20044;-79
2022/05/23 11:33:41;;;;;;;1.45;0.93;;;24.00;99.90;;;;;;5056252;28;20076;-79
2022/05/23 11:34:46;;;;;;;0.90;0.73;;;24.00;99.90;;;;;;5056564;28;20492;-79
2022/05/23 11:40:01;;;;;;;1.20;1.00;;;24.20;99.90;;;;;;5055462;28;20126;-78
2022/05/23 11:42:32;;;;;;;2.92;1.10;;;24.30;99.90;;;;;;5056132;28;20075;-79
2022/05/23 11:47:54;;;;;;;1.73;1.15;;;24.40;99.90;;;;;;5056121;28;20438;-79
2022/05/23 11:50:26;;;;;;;1.98;0.90;;;24.50;99.90;;;;;;5056237;28;20503;-78
2022/05/23 11:53:12;;;;;;;2.20;1.35;;;24.60;99.90;;;;;;5055818;28;20489;-79
2022/05/23 11:56:03;;;;;;;1.33;0.98;;;24.70;99.90;;;;;;5055396;28;20054;-78
2022/05/23 11:58:40;;;;;;;1.23;0.90;;;24.70;99.90;;;;;;5049442;28;20044;-80
2022/05/23 12:01:13;;;;;;;3.63;1.00;;;24.70;99.90;;;;;;5056536;28;20040;-80
2022/05/23 12:03:55;;;;;;;2.28;1.20;;;24.60;99.90;;;;;;5073585;28;20072;-78
2022/05/23 12:06:23;;;;;;;1.45;0.88;;;24.60;99.90;;;;;;5057321;28;20080;-80
2022/05/23 12:09:04;;;;;;;1.25;0.90;;;;;;;;;;5055697;28;20046;-80
2022/05/23 12:11:32;;;;;;;2.50;1.17;;;;;;;;;;5056249;28;20044;-79
2022/05/23 12:14:17;;;;;;;2.17;1.20;;;;;;;;;;5056579;28;20049;-79
2022/05/23 12:16:44;;;;;;;1.45;0.98;;;;;;;;;;5056251;28;20460;-79
2022/05/23 12:19:28;;;;;;;3.15;1.10;;;;;;;;;;5056177;28;20059;-79
2022/05/23 12:22:14;;;;;;;2.03;1.00;;;;;;;;;;5055557;28;20454;-82
2022/05/23 12:24:59;;;;;;;1.70;1.10;;;;;;;;;;5054702;28;20049;-78
2022/05/23 12:27:33;;;;;;;4.10;1.10;;;;;;;;;;5071579;28;20388;-79
2022/05/23 12:30:21;;;;;;;2.40;1.05;;;;;;;;;;5054555;28;20125;-78
2022/05/23 12:32:48;;;;;;;1.75;1.15;;;;;;;;;;5071527;28;20484;-78
2022/05/23 12:35:16;;;;;;;1.45;0.93;;;;;;;;;;5071516;28;20040;-78
2022/05/23 12:37:45;;;;;;;2.70;1.30;;;;;;;;;;5071244;28;20040;-78
2022/05/23 12:40:31;;;;;;;3.40;1.02;;;;;;;;;;5054375;28;20037;-78
2022/05/23 12:43:16;;;;;;;1.90;1.00;;;;;;;;;;5037689;28;20036;-79
2022/05/23 12:46:15;;;;;;;1.33;0.93;;;;;;;;;;5071193;28;20045;-79
2022/05/23 12:48:48;;;;;;;2.92;0.90;;;;;;;;;;5005392;28;20052;-78
2022/05/23 12:51:18;;;;;;;1.55;1.05;;;;;;;;;;5071041;28;20051;-79
2022/05/23 12:53:56;;;;;;;1.67;0.90;;;;;;;;;;5071147;28;20095;-79
2022/05/23 12:56:28;;;;;;;1.90;1.00;;;;;;;;;;5054323;28;20044;-79
2022/05/23 12:59:13;;;;;;;2.42;1.10;;;;;;;;;;5071059;28;20064;-79
2022/05/23 13:01:42;;;;;;;2.28;1.25;;;;;;;;;;5070992;28;20040;-79
2022/05/23 13:04:20;;;;;;;1.10;0.90;;;;;;;;;;5054236;28;20079;-79
2022/05/23 13:06:58;;;;;;;1.42;1.05;;;;;;;;;;5054204;28;20048;-79
2022/05/23 13:09:35;;;;;;;1.00;0.90;;;;;;;;;;5071244;28;20045;-78
2022/05/23 13:12:05;;;;;;;2.00;1.30;;;;;;;;;;5055522;28;20072;-79
2022/05/23 13:14:50;;;;;;;2.17;1.27;;;;;;;;;;5058073;28;20079;-80
2022/05/23 13:17:30;;;;;;;1.15;0.80;;;;;;;;;;5057778;28;20131;-84
2022/05/23 13:22:40;;;;;;;1.20;1.02;;;;;;;;;;5057589;28;20056;-78
2022/05/23 13:25:07;;;;;;;1.17;1.00;;;;;;;;;;5074196;28;20072;-77
2022/05/23 13:27:43;;;;;;;2.83;1.20;;;;;;;;;;5057566;28;20036;-78
2022/05/23 13:30:18;;;;;;;2.15;1.30;;;;;;;;;;5074211;28;20040;-82
2022/05/23 13:33:08;;;;;;;2.97;1.30;;;;;;;;;;5057878;28;20043;-79
2022/05/23 13:35:36;;;;;;;1.90;1.02;;;;;;;;;;5057481;28;20048;-79
2022/05/23 13:38:17;;;;;;;1.75;0.98;;;;;;;;;;5074144;28;20072;-79
2022/05/23 13:40:43;;;;;;;;;;;;;;;;;;5074752;28;20039;-79
2022/05/23 13:43:10;;;;;;;6.57;1.50;;;;;;;;;;5057270;28;19916;-79
2022/05/23 13:45:39;;;;;;;1.13;0.93;;;;;;;;;;5057630;28;20557;-79
2022/05/23 13:48:14;;;;;;;1.80;1.02;;;;;;;;;;5074234;28;20484;-79
2022/05/23 13:50:42;;;;;;;2.08;1.15;;;;;;;;;;5057616;28;20403;-79
2022/05/23 13:53:30;;;;;;;2.28;1.23;;;;;;;;;;5058127;28;20048;-79
2022/05/23 13:55:57;;;;;;;1.30;1.20;;;;;;;;;;5057241;28;20091;-81
2022/05/23 13:58:25;;;;;;;2.10;1.40;;;;;;;;;;5057480;28;20476;-82
2022/05/23 14:01:01;;;;;;;5.20;1.50;;;;;;;;;;5074099;28;20040;-81
2022/05/23 14:03:27;;;;;;;4.15;1.40;;;;;;;;;;5074479;28;20068;-78
2022/05/23 14:05:54;;;;;;;2.38;1.35;;;;;;;;;;5057080;28;20090;-79
2022/05/23 14:08:34;;;;;;;2.25;1.23;;;;;;;;;;5073921;28;20054;-79
2022/05/23 14:11:18;;;;;;;1.88;1.33;;;;;;;;;;5057165;28;20040;-79
2022/05/23 14:13:46;;;;;;;1.83;1.20;;;;;;;;;;5056783;28;20123;-78
2022/05/23 14:16:14;;;;;;;4.25;1.60;;;;;;;;;;5073489;28;20084;-79
2022/05/23 14:18:40;;;;;;;2.63;1.30;;;;;;;;;;5073615;28;20499;-79
2022/05/23 14:21:26;;;;;;;2.28;1.25;;;;;;;;;;5056406;28;20063;-79
2022/05/23 14:23:53;;;;;;;1.55;1.13;;;;;;;;;;5055152;28;20071;-79
2022/05/23 14:26:20;;;;;;;2.95;1.30;;;;;;;;;;5073245;28;20040;-79
2022/05/23 14:28:49;;;;;;;2.38;1.25;;;;;;;;;;5073219;28;20044;-79
2022/05/23 14:31:33;;;;;;;2.25;1.10;;;;;;;;;;5073519;28;20041;-79
2022/05/23 14:34:00;;;;;;;2.78;1.50;;;;;;;;;;5056645;28;20067;-81